sensor_id;sensor_type;location;lat;lon;timestamp;pressure;altitude;pressure_sealevel;temperature;humidity
83411;BME280;73340;53.132;8.174;2024-03-08T00:01:45;102220.66;;;2.36;87.78
83411;BME280;73340;53.132;8.174;2024-03-08T00:04:11;102217.16;;;2.34;87.62
83411;BME280;73340;53.132;8.174;2024-03-08T00:06:36;102209.22;;;2.30;88.00
83411;BME280;73340;53.132;8.174;2024-03-08T00:09:02;102203.91;;;2.25;87.84
83411;BME280;73340;53.132;8.174;2024-03-08T00:11:27;102211.75;;;2.27;87.75
83411;BME280;73340;53.132;8.174;2024-03-08T00:13:53;102208.44;;;2.32;87.64
83411;BME280;73340;53.132;8.174;2024-03-08T00:16:18;102184.47;;;2.11;87.66
83411;BME280;73340;53.132;8.174;2024-03-08T00:18:48;102208.13;;;2.20;88.19
83411;BME280;73340;53.132;8.174;2024-03-08T00:21:14;102195.78;;;2.13;87.72
83411;BME280;73340;53.132;8.174;2024-03-08T00:23:40;102203.66;;;2.16;88.12
83411;BME280;73340;53.132;8.174;2024-03-08T00:26:06;102199.34;;;2.17;87.75
83411;BME280;73340;53.132;8.174;2024-03-08T00:28:31;102185.41;;;2.13;87.86
83411;BME280;73340;53.132;8.174;2024-03-08T00:30:57;102198.38;;;2.13;88.41
83411;BME280;73340;53.132;8.174;2024-03-08T00:33:22;102192.28;;;2.11;87.30
83411;BME280;73340;53.132;8.174;2024-03-08T00:35:47;102199.25;;;2.12;87.64
83411;BME280;73340;53.132;8.174;2024-03-08T00:38:13;102190.44;;;2.07;87.83
83411;BME280;73340;53.132;8.174;2024-03-08T00:40:38;102193.97;;;2.09;87.04
83411;BME280;73340;53.132;8.174;2024-03-08T00:43:05;102193.13;;;2.10;87.57
83411;BME280;73340;53.132;8.174;2024-03-08T00:45:31;102193.16;;;2.12;87.42
83411;BME280;73340;53.132;8.174;2024-03-08T00:47:56;102148.06;;;1.77;87.71
83411;BME280;73340;53.132;8.174;2024-03-08T00:50:22;102194.72;;;2.05;87.83
83411;BME280;73340;53.132;8.174;2024-03-08T00:52:47;102179.03;;;2.01;87.73
83411;BME280;73340;53.132;8.174;2024-03-08T00:55:12;102185.22;;;2.06;87.17
83411;BME280;73340;53.132;8.174;2024-03-08T00:57:38;102183.41;;;2.03;87.15
83411;BME280;73340;53.132;8.174;2024-03-08T01:00:05;102175.69;;;2.06;86.82
83411;BME280;73340;53.132;8.174;2024-03-08T01:02:32;102173.88;;;2.02;86.63
83411;BME280;73340;53.132;8.174;2024-03-08T01:05:00;102169.59;;;2.04;87.32
83411;BME280;73340;53.132;8.174;2024-03-08T01:07:26;102161.88;;;2.07;85.97
83411;BME280;73340;53.132;8.174;2024-03-08T01:09:51;102165.28;;;2.06;86.34
83411;BME280;73340;53.132;8.174;2024-03-08T01:12:17;102131.84;;;1.84;86.27
83411;BME280;73340;53.132;8.174;2024-03-08T01:14:42;102158.28;;;2.02;86.74
83411;BME280;73340;53.132;8.174;2024-03-08T01:17:07;102151.25;;;2.00;86.65
83411;BME280;73340;53.132;8.174;2024-03-08T01:19:35;102156.50;;;2.01;86.43
83411;BME280;73340;53.132;8.174;2024-03-08T01:22:00;102116.97;;;1.79;85.88
83411;BME280;73340;53.132;8.174;2024-03-08T01:24:26;102151.25;;;2.00;86.15
83411;BME280;73340;53.132;8.174;2024-03-08T01:26:51;102143.50;;;2.01;86.31
83411;BME280;73340;53.132;8.174;2024-03-08T01:29:17;102147.75;;;1.96;85.76
83411;BME280;73340;53.132;8.174;2024-03-08T01:31:42;102144.28;;;1.97;85.79
83411;BME280;73340;53.132;8.174;2024-03-08T01:34:07;102132.06;;;1.93;86.04
83411;BME280;73340;53.132;8.174;2024-03-08T01:36:33;102137.25;;;1.93;85.82
83411;BME280;73340;53.132;8.174;2024-03-08T01:38:58;102136.28;;;1.90;85.85
83411;BME280;73340;53.132;8.174;2024-03-08T01:41:24;102120.69;;;1.90;86.12
83411;BME280;73340;53.132;8.174;2024-03-08T01:43:49;102115.28;;;1.81;86.11
83411;BME280;73340;53.132;8.174;2024-03-08T01:46:18;102123.19;;;1.85;86.62
83411;BME280;73340;53.132;8.174;2024-03-08T01:48:44;102105.69;;;1.78;86.26
83411;BME280;73340;53.132;8.174;2024-03-08T01:51:10;102112.66;;;1.79;86.25
83411;BME280;73340;53.132;8.174;2024-03-08T01:53:37;102119.78;;;1.86;86.38
83411;BME280;73340;53.132;8.174;2024-03-08T01:56:04;102111.03;;;1.83;86.16
83411;BME280;73340;53.132;8.174;2024-03-08T01:58:31;102106.69;;;1.83;85.61
83411;BME280;73340;53.132;8.174;2024-03-08T02:00:58;102105.69;;;1.78;86.18
83411;BME280;73340;53.132;8.174;2024-03-08T02:03:24;102096.03;;;1.73;85.59
83411;BME280;73340;53.132;8.174;2024-03-08T02:05:50;102098.81;;;1.80;86.07
83411;BME280;73340;53.132;8.174;2024-03-08T02:08:17;102098.66;;;1.74;85.81
83411;BME280;73340;53.132;8.174;2024-03-08T02:10:43;102100.41;;;1.75;85.76
83411;BME280;73340;53.132;8.174;2024-03-08T02:13:10;102092.44;;;1.68;85.94
83411;BME280;73340;53.132;8.174;2024-03-08T02:15:54;102100.28;;;1.69;86.72
83411;BME280;73340;53.132;8.174;2024-03-08T02:18:21;102088.22;;;1.71;86.16
83411;BME280;73340;53.132;8.174;2024-03-08T02:20:47;102095.06;;;1.69;86.35
83411;BME280;73340;53.132;8.174;2024-03-08T02:23:14;102089.84;;;1.68;85.88
83411;BME280;73340;53.132;8.174;2024-03-08T02:25:40;102094.19;;;1.69;85.43
83411;BME280;73340;53.132;8.174;2024-03-08T02:28:09;102090.59;;;1.64;86.01
83411;BME280;73340;53.132;8.174;2024-03-08T02:30:35;102100.16;;;1.65;86.14
83411;BME280;73340;53.132;8.174;2024-03-08T02:33:01;102083.63;;;1.61;85.48
83411;BME280;73340;53.132;8.174;2024-03-08T02:35:26;102082.72;;;1.61;85.85
83411;BME280;73340;53.132;8.174;2024-03-08T02:37:52;102086.22;;;1.61;85.54
83411;BME280;73340;53.132;8.174;2024-03-08T02:40:17;102072.97;;;1.52;85.98
83411;BME280;73340;53.132;8.174;2024-03-08T02:42:42;102072.19;;;1.55;86.52
83411;BME280;73340;53.132;8.174;2024-03-08T02:45:08;102061.59;;;1.47;86.84
83411;BME280;73340;53.132;8.174;2024-03-08T02:47:35;102072.03;;;1.50;86.62
83411;BME280;73340;53.132;8.174;2024-03-08T02:50:00;102065.94;;;1.48;86.27
83411;BME280;73340;53.132;8.174;2024-03-08T02:52:26;102065.03;;;1.46;86.68
83411;BME280;73340;53.132;8.174;2024-03-08T02:54:52;101990.88;;;0.92;86.30
83411;BME280;73340;53.132;8.174;2024-03-08T02:57:17;102066.72;;;1.44;86.21
83411;BME280;73340;53.132;8.174;2024-03-08T02:59:43;102059.66;;;1.40;86.77
83411;BME280;73340;53.132;8.174;2024-03-08T03:02:09;102018.63;;;1.25;86.48
83411;BME280;73340;53.132;8.174;2024-03-08T03:04:35;102058.06;;;1.45;86.90
83411;BME280;73340;53.132;8.174;2024-03-08T03:07:01;102045.78;;;1.38;86.65
83411;BME280;73340;53.132;8.174;2024-03-08T03:09:26;102062.25;;;1.40;86.19
83411;BME280;73340;53.132;8.174;2024-03-08T03:11:55;102055.28;;;1.38;86.25
83411;BME280;73340;53.132;8.174;2024-03-08T03:14:21;102058.69;;;1.37;87.13
83411;BME280;73340;53.132;8.174;2024-03-08T03:16:47;102055.31;;;1.39;87.25
83411;BME280;73340;53.132;8.174;2024-03-08T03:19:12;102056.06;;;1.35;87.25
83411;BME280;73340;53.132;8.174;2024-03-08T03:21:38;102053.47;;;1.35;87.16
83411;BME280;73340;53.132;8.174;2024-03-08T03:24:04;102058.63;;;1.33;87.47
83411;BME280;73340;53.132;8.174;2024-03-08T03:26:37;102051.56;;;1.28;87.36
83411;BME280;73340;53.132;8.174;2024-03-08T03:29:05;102053.34;;;1.30;87.02
83411;BME280;73340;53.132;8.174;2024-03-08T03:31:31;102040.13;;;1.21;86.97
83411;BME280;73340;53.132;8.174;2024-03-08T03:33:57;102049.78;;;1.27;86.93
83411;BME280;73340;53.132;8.174;2024-03-08T03:36:27;102042.72;;;1.21;87.27
83411;BME280;73340;53.132;8.174;2024-03-08T03:38:56;102054.88;;;1.22;87.77
83411;BME280;73340;53.132;8.174;2024-03-08T03:41:36;102049.75;;;1.25;87.06
83411;BME280;73340;53.132;8.174;2024-03-08T03:44:02;102047.03;;;1.21;87.28
83411;BME280;73340;53.132;8.174;2024-03-08T03:46:27;102046.03;;;1.16;87.92
83411;BME280;73340;53.132;8.174;2024-03-08T03:48:54;102037.28;;;1.12;87.32
83411;BME280;73340;53.132;8.174;2024-03-08T03:51:20;102042.44;;;1.11;88.19
83411;BME280;73340;53.132;8.174;2024-03-08T03:53:46;102039.88;;;1.12;87.72
83411;BME280;73340;53.132;8.174;2024-03-08T03:56:12;102043.34;;;1.11;88.07
83411;BME280;73340;53.132;8.174;2024-03-08T03:58:37;102047.63;;;1.11;88.50
83411;BME280;73340;53.132;8.174;2024-03-08T04:01:04;102035.47;;;1.10;87.78
83411;BME280;73340;53.132;8.174;2024-03-08T04:03:29;102039.84;;;1.11;87.56
83411;BME280;73340;53.132;8.174;2024-03-08T04:05:55;102036.31;;;1.09;88.37
83411;BME280;73340;53.132;8.174;2024-03-08T04:08:20;102036.25;;;1.06;87.99
83411;BME280;73340;53.132;8.174;2024-03-08T04:10:46;102032.03;;;1.09;88.51
83411;BME280;73340;53.132;8.174;2024-03-08T04:13:11;102031.09;;;1.07;88.71
83411;BME280;73340;53.132;8.174;2024-03-08T04:15:36;102024.09;;;1.05;88.62
83411;BME280;73340;53.132;8.174;2024-03-08T04:18:03;102024.91;;;1.02;88.03
83411;BME280;73340;53.132;8.174;2024-03-08T04:20:28;102030.06;;;1.01;88.94
83411;BME280;73340;53.132;8.174;2024-03-08T04:22:53;102015.03;;;0.89;89.15
83411;BME280;73340;53.132;8.174;2024-03-08T04:25:19;102027.19;;;0.92;88.66
83411;BME280;73340;53.132;8.174;2024-03-08T04:27:45;102023.78;;;0.93;89.65
83411;BME280;73340;53.132;8.174;2024-03-08T04:30:12;102025.53;;;0.94;89.59
83411;BME280;73340;53.132;8.174;2024-03-08T04:32:37;101990.38;;;0.74;88.92
83411;BME280;73340;53.132;8.174;2024-03-08T04:35:03;102018.69;;;0.96;88.34
83411;BME280;73340;53.132;8.174;2024-03-08T04:37:29;102015.13;;;0.92;89.92
83411;BME280;73340;53.132;8.174;2024-03-08T04:39:55;102020.22;;;0.89;89.86
83411;BME280;73340;53.132;8.174;2024-03-08T04:42:20;101989.44;;;0.72;89.35
83411;BME280;73340;53.132;8.174;2024-03-08T04:44:46;102016.72;;;0.89;88.99
83411;BME280;73340;53.132;8.174;2024-03-08T04:47:12;102024.50;;;0.89;89.85
83411;BME280;73340;53.132;8.174;2024-03-08T04:49:37;102009.88;;;0.91;89.10
83411;BME280;73340;53.132;8.174;2024-03-08T04:52:03;102012.44;;;0.89;89.23
83411;BME280;73340;53.132;8.174;2024-03-08T04:54:30;102009.81;;;0.88;89.15
83411;BME280;73340;53.132;8.174;2024-03-08T04:56:56;102004.69;;;0.91;89.29
83411;BME280;73340;53.132;8.174;2024-03-08T04:59:21;102008.06;;;0.88;89.92
83411;BME280;73340;53.132;8.174;2024-03-08T05:01:47;102010.63;;;0.87;89.26
83411;BME280;73340;53.132;8.174;2024-03-08T05:04:13;102001.06;;;0.84;90.11
83411;BME280;73340;53.132;8.174;2024-03-08T05:06:38;101993.25;;;0.83;90.00
83411;BME280;73340;53.132;8.174;2024-03-08T05:09:03;102000.94;;;0.80;90.55
83411;BME280;73340;53.132;8.174;2024-03-08T05:11:41;101993.16;;;0.80;89.88
83411;BME280;73340;53.132;8.174;2024-03-08T05:14:08;101993.19;;;0.81;90.43
83411;BME280;73340;53.132;8.174;2024-03-08T05:16:33;101989.66;;;0.78;90.06
83411;BME280;73340;53.132;8.174;2024-03-08T05:18:59;101986.28;;;0.82;89.42
83411;BME280;73340;53.132;8.174;2024-03-08T05:21:24;101977.53;;;0.78;90.65
83411;BME280;73340;53.132;8.174;2024-03-08T05:23:50;101987.97;;;0.80;89.85
83411;BME280;73340;53.132;8.174;2024-03-08T05:26:16;101993.72;;;0.99;91.94
83411;BME280;73340;53.132;8.174;2024-03-08T05:28:42;101920.09;;;0.63;91.15
83411;BME280;73340;53.132;8.174;2024-03-08T05:31:07;101981.13;;;1.13;92.00
83411;BME280;73340;53.132;8.174;2024-03-08T05:33:33;101974.09;;;1.09;91.14
83411;BME280;73340;53.132;8.174;2024-03-08T05:36:02;101961.72;;;0.99;90.75
83411;BME280;73340;53.132;8.174;2024-03-08T05:38:28;101975.09;;;1.14;90.24
83411;BME280;73340;53.132;8.174;2024-03-08T05:40:54;101978.53;;;1.13;90.74
83411;BME280;73340;53.132;8.174;2024-03-08T05:43:19;101967.16;;;1.08;89.79
83411;BME280;73340;53.132;8.174;2024-03-08T05:45:46;101963.00;;;1.14;89.92
83411;BME280;73340;53.132;8.174;2024-03-08T05:48:11;101972.50;;;1.14;89.25
83411;BME280;73340;53.132;8.174;2024-03-08T05:50:39;101910.28;;;0.83;89.45
83411;BME280;73340;53.132;8.174;2024-03-08T05:53:05;101974.53;;;1.25;90.63
83411;BME280;73340;53.132;8.174;2024-03-08T05:55:32;101975.22;;;1.20;90.35
83411;BME280;73340;53.132;8.174;2024-03-08T05:58:00;101970.91;;;1.19;90.22
83411;BME280;73340;53.132;8.174;2024-03-08T06:00:26;101963.41;;;1.29;91.06
83411;BME280;73340;53.132;8.174;2024-03-08T06:02:51;101964.13;;;1.24;89.85
83411;BME280;73340;53.132;8.174;2024-03-08T06:05:17;101929.81;;;1.01;89.51
83411;BME280;73340;53.132;8.174;2024-03-08T06:07:42;101944.78;;;1.11;90.20
83411;BME280;73340;53.132;8.174;2024-03-08T06:10:09;101897.47;;;0.89;90.20
83411;BME280;73340;53.132;8.174;2024-03-08T06:12:38;101958.94;;;1.24;90.01
83411;BME280;73340;53.132;8.174;2024-03-08T06:15:07;101952.22;;;1.32;89.33
83411;BME280;73340;53.132;8.174;2024-03-08T06:17:34;101934.09;;;1.01;89.16
83411;BME280;73340;53.132;8.174;2024-03-08T06:20:00;101959.19;;;1.02;89.42
83411;BME280;73340;53.132;8.174;2024-03-08T06:22:25;101955.59;;;0.97;90.01
83411;BME280;73340;53.132;8.174;2024-03-08T06:24:50;101953.84;;;0.96;90.67
83411;BME280;73340;53.132;8.174;2024-03-08T06:27:16;101953.75;;;0.91;90.67
83411;BME280;73340;53.132;8.174;2024-03-08T06:29:42;101937.22;;;0.88;89.66
83411;BME280;73340;53.132;8.174;2024-03-08T06:32:08;101931.16;;;0.87;90.50
83411;BME280;73340;53.132;8.174;2024-03-08T06:34:33;101938.97;;;0.89;90.98
83411;BME280;73340;53.132;8.174;2024-03-08T06:37:00;101947.00;;;0.98;90.99
83411;BME280;73340;53.132;8.174;2024-03-08T06:39:27;101916.28;;;0.82;90.29
83411;BME280;73340;53.132;8.174;2024-03-08T06:41:53;101947.13;;;1.02;90.49
83411;BME280;73340;53.132;8.174;2024-03-08T06:44:19;101951.59;;;1.08;90.37
83411;BME280;73340;53.132;8.174;2024-03-08T06:46:47;101886.75;;;0.75;90.01
83411;BME280;73340;53.132;8.174;2024-03-08T06:49:13;101936.31;;;1.20;89.14
83411;BME280;73340;53.132;8.174;2024-03-08T06:51:39;101942.03;;;1.07;90.13
83411;BME280;73340;53.132;8.174;2024-03-08T06:54:06;101942.38;;;1.19;89.73
83411;BME280;73340;53.132;8.174;2024-03-08T06:56:37;101943.16;;;1.16;89.85
83411;BME280;73340;53.132;8.174;2024-03-08T06:59:03;101941.50;;;1.20;89.86
83411;BME280;73340;53.132;8.174;2024-03-08T07:01:29;101952.84;;;1.23;89.41
83411;BME280;73340;53.132;8.174;2024-03-08T07:03:59;101937.34;;;1.26;89.73
83411;BME280;73340;53.132;8.174;2024-03-08T07:06:25;101946.09;;;1.30;89.10
83411;BME280;73340;53.132;8.174;2024-03-08T07:08:51;101942.75;;;1.34;88.00
83411;BME280;73340;53.132;8.174;2024-03-08T07:11:16;101941.13;;;1.38;88.22
83411;BME280;73340;53.132;8.174;2024-03-08T07:13:47;101947.38;;;1.46;87.81
83411;BME280;73340;53.132;8.174;2024-03-08T07:16:12;101948.28;;;1.48;87.81
83411;BME280;73340;53.132;8.174;2024-03-08T07:18:38;101948.44;;;1.54;86.91
83411;BME280;73340;53.132;8.174;2024-03-08T07:21:09;101945.94;;;1.58;86.62
83411;BME280;73340;53.132;8.174;2024-03-08T07:23:35;101925.13;;;1.55;85.76
83411;BME280;73340;53.132;8.174;2024-03-08T07:26:29;101950.53;;;1.68;86.25
83411;BME280;73340;53.132;8.174;2024-03-08T07:28:55;101943.66;;;1.70;85.96
83411;BME280;73340;53.132;8.174;2024-03-08T07:31:20;101936.88;;;1.77;85.56
83411;BME280;73340;53.132;8.174;2024-03-08T07:34:09;101944.75;;;1.80;84.63
83411;BME280;73340;53.132;8.174;2024-03-08T07:36:34;101944.94;;;1.87;85.39
83411;BME280;73340;53.132;8.174;2024-03-08T07:39:02;101921.34;;;1.78;84.51
83411;BME280;73340;53.132;8.174;2024-03-08T07:41:30;101929.56;;;1.96;84.96
83411;BME280;73340;53.132;8.174;2024-03-08T07:43:56;101927.94;;;2.01;84.31
83411;BME280;73340;53.132;8.174;2024-03-08T07:46:21;101925.41;;;2.03;84.35
83411;BME280;73340;53.132;8.174;2024-03-08T07:48:46;101882.66;;;1.89;83.81
83411;BME280;73340;53.132;8.174;2024-03-08T07:51:16;101916.13;;;2.15;84.03
83411;BME280;73340;53.132;8.174;2024-03-08T07:53:42;101921.53;;;2.24;83.18
83411;BME280;73340;53.132;8.174;2024-03-08T07:56:08;101918.91;;;2.23;83.03
83411;BME280;73340;53.132;8.174;2024-03-08T07:58:38;101927.59;;;2.25;83.20
83411;BME280;73340;53.132;8.174;2024-03-08T08:01:03;101915.53;;;2.28;83.01
83411;BME280;73340;53.132;8.174;2024-03-08T08:03:29;101924.38;;;2.36;82.49
83411;BME280;73340;53.132;8.174;2024-03-08T08:05:54;101923.69;;;2.45;81.86
83411;BME280;73340;53.132;8.174;2024-03-08T08:08:19;101920.25;;;2.46;81.56
83411;BME280;73340;53.132;8.174;2024-03-08T08:10:45;101923.06;;;2.56;82.01
83411;BME280;73340;53.132;8.174;2024-03-08T08:13:10;101907.56;;;2.61;81.55
83411;BME280;73340;53.132;8.174;2024-03-08T08:15:36;101910.19;;;2.61;81.03
83411;BME280;73340;53.132;8.174;2024-03-08T08:18:01;101910.25;;;2.66;80.35
83411;BME280;73340;53.132;8.174;2024-03-08T08:20:30;101914.72;;;2.71;80.55
83411;BME280;73340;53.132;8.174;2024-03-08T08:22:56;101910.59;;;2.84;80.26
83411;BME280;73340;53.132;8.174;2024-03-08T08:25:22;101900.25;;;2.87;79.97
83411;BME280;73340;53.132;8.174;2024-03-08T08:27:49;101912.56;;;2.97;79.95
83411;BME280;73340;53.132;8.174;2024-03-08T08:30:15;101905.75;;;3.02;79.73
83411;BME280;73340;53.132;8.174;2024-03-08T08:32:40;101901.53;;;3.10;78.87
83411;BME280;73340;53.132;8.174;2024-03-08T08:35:07;101894.69;;;3.15;78.78
83411;BME280;73340;53.132;8.174;2024-03-08T08:37:39;101901.03;;;3.29;78.41
83411;BME280;73340;53.132;8.174;2024-03-08T08:40:04;101893.22;;;3.30;78.55
83411;BME280;73340;53.132;8.174;2024-03-08T08:42:34;101867.28;;;3.36;76.95
83411;BME280;73340;53.132;8.174;2024-03-08T08:45:00;101881.41;;;3.49;77.22
83411;BME280;73340;53.132;8.174;2024-03-08T08:47:29;101882.38;;;3.57;76.77
83411;BME280;73340;53.132;8.174;2024-03-08T08:49:54;101875.56;;;3.65;76.67
83411;BME280;73340;53.132;8.174;2024-03-08T08:52:20;101872.16;;;3.69;75.25
83411;BME280;73340;53.132;8.174;2024-03-08T08:54:45;101865.25;;;3.71;74.60
83411;BME280;73340;53.132;8.174;2024-03-08T08:57:10;101860.09;;;3.75;75.26
83411;BME280;73340;53.132;8.174;2024-03-08T08:59:36;101828.69;;;3.66;74.75
83411;BME280;73340;53.132;8.174;2024-03-08T09:02:04;101864.63;;;3.88;75.29
83411;BME280;73340;53.132;8.174;2024-03-08T09:04:30;101805.38;;;3.72;73.37
83411;BME280;73340;53.132;8.174;2024-03-08T09:06:56;101858.75;;;4.03;74.25
83411;BME280;73340;53.132;8.174;2024-03-08T09:09:22;101847.53;;;4.09;74.21
83411;BME280;73340;53.132;8.174;2024-03-08T09:11:47;101852.91;;;4.21;72.80
83411;BME280;73340;53.132;8.174;2024-03-08T09:14:12;101843.25;;;4.15;73.39
83411;BME280;73340;53.132;8.174;2024-03-08T09:16:39;101845.94;;;4.23;73.48
83411;BME280;73340;53.132;8.174;2024-03-08T09:19:04;101838.09;;;4.20;74.44
83411;BME280;73340;53.132;8.174;2024-03-08T09:21:32;101844.34;;;4.31;73.44
83411;BME280;73340;53.132;8.174;2024-03-08T09:23:57;101830.50;;;4.39;73.22
83411;BME280;73340;53.132;8.174;2024-03-08T09:26:23;101777.19;;;4.12;72.77
83411;BME280;73340;53.132;8.174;2024-03-08T09:28:49;101834.97;;;4.49;73.20
83411;BME280;73340;53.132;8.174;2024-03-08T09:31:14;101820.28;;;4.56;71.23
83411;BME280;73340;53.132;8.174;2024-03-08T09:33:40;101822.03;;;4.57;70.82
83411;BME280;73340;53.132;8.174;2024-03-08T09:36:07;101816.19;;;4.80;69.73
83411;BME280;73340;53.132;8.174;2024-03-08T09:38:32;101808.25;;;4.71;71.29
83411;BME280;73340;53.132;8.174;2024-03-08T09:40:59;101805.75;;;4.83;71.39
83411;BME280;73340;53.132;8.174;2024-03-08T09:43:27;101801.53;;;4.97;69.95
83411;BME280;73340;53.132;8.174;2024-03-08T09:45:53;101798.91;;;4.96;70.77
83411;BME280;73340;53.132;8.174;2024-03-08T09:48:21;101785.00;;;4.95;70.57
83411;BME280;73340;53.132;8.174;2024-03-08T09:50:47;101790.47;;;5.27;68.35
83411;BME280;73340;53.132;8.174;2024-03-08T09:53:13;101785.97;;;5.09;68.76
83411;BME280;73340;53.132;8.174;2024-03-08T09:55:38;101783.34;;;5.09;69.44
83411;BME280;73340;53.132;8.174;2024-03-08T09:58:14;101768.72;;;5.30;69.48
83411;BME280;73340;53.132;8.174;2024-03-08T10:00:43;101744.31;;;5.28;68.46
83411;BME280;73340;53.132;8.174;2024-03-08T10:03:09;101760.97;;;5.43;68.74
83411;BME280;73340;53.132;8.174;2024-03-08T10:05:36;101762.66;;;5.37;68.20
83411;BME280;73340;53.132;8.174;2024-03-08T10:08:02;101756.63;;;5.47;67.55
83411;BME280;73340;53.132;8.174;2024-03-08T10:10:27;101761.97;;;5.63;65.84
83411;BME280;73340;53.132;8.174;2024-03-08T10:12:53;101749.78;;;5.67;67.54
83411;BME280;73340;53.132;8.174;2024-03-08T10:15:19;101753.25;;;5.66;67.71
83411;BME280;73340;53.132;8.174;2024-03-08T10:17:45;101751.53;;;5.72;67.13
83411;BME280;73340;53.132;8.174;2024-03-08T10:20:14;101750.69;;;5.78;66.88
83411;BME280;73340;53.132;8.174;2024-03-08T10:22:40;101734.13;;;5.76;66.20
83411;BME280;73340;53.132;8.174;2024-03-08T10:25:12;101750.78;;;5.87;65.50
83411;BME280;73340;53.132;8.174;2024-03-08T10:27:38;101741.22;;;6.04;64.77
83411;BME280;73340;53.132;8.174;2024-03-08T10:30:08;101720.31;;;6.01;66.22
83411;BME280;73340;53.132;8.174;2024-03-08T10:32:35;101713.34;;;6.06;66.30
83411;BME280;73340;53.132;8.174;2024-03-08T10:35:01;101721.25;;;6.19;65.25
83411;BME280;73340;53.132;8.174;2024-03-08T10:37:27;101720.38;;;6.32;65.94
83411;BME280;73340;53.132;8.174;2024-03-08T10:40:04;101715.16;;;6.29;65.21
83411;BME280;73340;53.132;8.174;2024-03-08T10:42:40;101709.97;;;6.40;64.54
83411;BME280;73340;53.132;8.174;2024-03-08T10:45:15;101715.16;;;6.31;64.88
83411;BME280;73340;53.132;8.174;2024-03-08T10:47:49;101691.63;;;6.25;64.28
83411;BME280;73340;53.132;8.174;2024-03-08T10:50:20;101676.81;;;6.36;64.00
83411;BME280;73340;53.132;8.174;2024-03-08T10:52:50;101689.00;;;6.50;63.48
83411;BME280;73340;53.132;8.174;2024-03-08T10:55:20;101705.63;;;6.63;62.82
83411;BME280;73340;53.132;8.174;2024-03-08T10:57:46;101693.38;;;6.59;64.23
83411;BME280;73340;53.132;8.174;2024-03-08T11:00:13;101660.22;;;6.67;63.57
83411;BME280;73340;53.132;8.174;2024-03-08T11:02:43;101688.13;;;6.92;63.07
83411;BME280;73340;53.132;8.174;2024-03-08T11:05:10;101683.78;;;7.03;63.82
83411;BME280;73340;53.132;8.174;2024-03-08T11:07:42;101675.94;;;7.00;63.75
83411;BME280;73340;53.132;8.174;2024-03-08T11:10:19;101546.03;;;6.33;62.45
83411;BME280;73340;53.132;8.174;2024-03-08T11:12:45;101661.88;;;7.28;61.12
83411;BME280;73340;53.132;8.174;2024-03-08T11:15:12;101665.34;;;7.39;60.38
83411;BME280;73340;53.132;8.174;2024-03-08T11:20:11;101656.66;;;7.19;62.49
83411;BME280;73340;53.132;8.174;2024-03-08T11:22:50;101594.69;;;7.14;61.46
83411;BME280;73340;53.132;8.174;2024-03-08T11:30:36;101646.91;;;7.57;61.52
83411;BME280;73340;53.132;8.174;2024-03-08T11:33:03;101584.81;;;7.70;59.88
83411;BME280;73340;53.132;8.174;2024-03-08T11:35:29;101632.72;;;7.98;60.98
83411;BME280;73340;53.132;8.174;2024-03-08T11:37:58;101630.81;;;8.18;59.38
83411;BME280;73340;53.132;8.174;2024-03-08T11:40:24;101625.44;;;8.39;57.96
83411;BME280;73340;53.132;8.174;2024-03-08T11:42:49;101622.66;;;8.60;57.21
83411;BME280;73340;53.132;8.174;2024-03-08T11:45:17;101612.06;;;8.66;57.64
83411;BME280;73340;53.132;8.174;2024-03-08T11:47:45;101618.50;;;8.35;59.24
83411;BME280;73340;53.132;8.174;2024-03-08T11:50:12;101610.66;;;8.29;59.11
83411;BME280;73340;53.132;8.174;2024-03-08T11:52:38;101605.41;;;8.29;59.16
83411;BME280;73340;53.132;8.174;2024-03-08T11:55:04;101594.59;;;8.65;58.19
83411;BME280;73340;53.132;8.174;2024-03-08T11:57:31;101596.97;;;8.87;58.01
83411;BME280;73340;53.132;8.174;2024-03-08T11:59:58;101600.69;;;8.65;58.28
83411;BME280;73340;53.132;8.174;2024-03-08T12:02:24;101594.41;;;8.83;58.16
83411;BME280;73340;53.132;8.174;2024-03-08T12:04:57;101585.03;;;8.58;58.13
83411;BME280;73340;53.132;8.174;2024-03-08T12:07:24;101593.75;;;8.60;57.56
83411;BME280;73340;53.132;8.174;2024-03-08T12:10:19;101574.34;;;8.76;57.71
83411;BME280;73340;53.132;8.174;2024-03-08T12:12:49;101529.84;;;8.62;56.15
83411;BME280;73340;53.132;8.174;2024-03-08T12:15:16;101587.09;;;9.09;54.85
83411;BME280;73340;53.132;8.174;2024-03-08T12:17:43;101569.75;;;8.96;54.37
83411;BME280;73340;53.132;8.174;2024-03-08T12:22:42;101559.50;;;9.42;55.67
83411;BME280;73340;53.132;8.174;2024-03-08T12:25:08;101555.56;;;9.74;55.96
83411;BME280;73340;53.132;8.174;2024-03-08T12:27:41;101528.47;;;9.68;54.48
83411;BME280;73340;53.132;8.174;2024-03-08T12:30:21;101532.16;;;9.56;54.76
83411;BME280;73340;53.132;8.174;2024-03-08T12:32:57;101525.31;;;9.43;55.05
83411;BME280;73340;53.132;8.174;2024-03-08T12:35:24;101525.72;;;9.15;55.61
83411;BME280;73340;53.132;8.174;2024-03-08T12:37:52;101533.31;;;9.36;54.69
83411;BME280;73340;53.132;8.174;2024-03-08T12:40:18;101528.88;;;9.39;53.72
83411;BME280;73340;53.132;8.174;2024-03-08T12:42:45;101524.59;;;9.32;54.51
83411;BME280;73340;53.132;8.174;2024-03-08T12:45:13;101522.69;;;9.45;52.57
83411;BME280;73340;53.132;8.174;2024-03-08T12:47:38;101512.63;;;9.72;53.58
83411;BME280;73340;53.132;8.174;2024-03-08T12:50:08;101514.03;;;9.94;53.00
83411;BME280;73340;53.132;8.174;2024-03-08T12:52:34;101505.97;;;10.54;54.69
83411;BME280;73340;53.132;8.174;2024-03-08T12:54:59;101500.75;;;10.52;51.63
83411;BME280;73340;53.132;8.174;2024-03-08T12:57:32;101488.31;;;11.01;50.67
83411;BME280;73340;53.132;8.174;2024-03-08T12:59:58;101450.75;;;10.92;49.67
83411;BME280;73340;53.132;8.174;2024-03-08T13:02:24;101491.28;;;10.85;49.82
83411;BME280;73340;53.132;8.174;2024-03-08T13:04:51;101482.34;;;11.34;49.70
83411;BME280;73340;53.132;8.174;2024-03-08T13:07:25;101479.06;;;11.60;48.09
83411;BME280;73340;53.132;8.174;2024-03-08T13:09:54;101458.53;;;12.09;45.42